Flight Track Log - Related Links

Times and Time Zones

All times are in EDT time to prevent confusion due to time zone crossing. See the N175HQ flight status page for this flight to view local times or setup timezone preferences in your user account.

Time Position Orientation Groundspeed Altitude Reporting Facility
EDT Latitude Longitude Course Direction KTS MPH feet Rate Location/Type
Sat 04:59:00 PM 41.2947 -95.8892 135° Southeast 147 169 1,600  Level Minneapolis Center
Sat 04:59:24 PM 41.2811 -95.8711 135° Southeast 145 167 2,700 2,314 Climbing Minneapolis Center
Sat 05:00:10 PM 41.2586 -95.8403 134° Southeast 225 259 4,300 2,459 Climbing Minneapolis Center
Sat 05:00:25 PM 41.2622 -95.8097 81° East 236 272 5,200 2,459 Climbing Minneapolis Center
Sat 05:01:11 PM 41.2658 -95.7478 86° East 251 289 6,800 3,111 Climbing Minneapolis Center
Sat 05:02:13 PM 41.2775 -95.6092 84° East 289 333 10,800 3,366 Climbing Minneapolis Center
Sat 05:03:14 PM 41.2900 -95.4758 83° East 330 380 13,700 2,902 Climbing Minneapolis Center
Sat 05:05:17 PM 41.3136 -95.1875 84° East 394 453 19,700 2,772 Climbing Minneapolis Center
Sat 05:06:18 PM 41.3264 -95.0375 83° East 405 466 22,200 2,410 Climbing Minneapolis Center
Sat 05:07:19 PM 41.3383 -94.8797 84° East 421 484 24,600 2,195 Climbing Minneapolis Center
Sat 05:08:21 PM 41.3219 -94.7169 98° East 439 505 26,700 1,902 Climbing Minneapolis Center
Sat 05:09:22 PM 41.2953 -94.5525 102° East 450 518 28,500 1,820 Climbing Minneapolis Center
Sat 05:10:23 PM 41.2719 -94.3825 100° East 462 532 30,400 1,854 Climbing Minneapolis Center
Sat 05:11:25 PM 41.2442 -94.2022 102° East 469 540 32,300 2,049 Climbing Minneapolis Center
Sat 05:12:26 PM 41.2203 -94.0336 101° East 469 540 34,600 1,317 Climbing Minneapolis Center
Sat 05:13:28 PM 41.1961 -93.8700 101° East 459 528 35,000 195 Climbing Minneapolis Center
Sat 05:14:29 PM 41.1669 -93.6786 101° East 446 513 35,000  Level Minneapolis Center
Sat 05:15:30 PM 41.1431 -93.5192 101° East 444 511 35,000  Level Minneapolis Center
Sat 05:16:32 PM 41.1183 -93.3578 101° East 446 513 35,000  Level Minneapolis Center
Sat 05:17:33 PM 41.0936 -93.1956 101° East 449 517 35,000  Level Minneapolis Center
Sat 05:18:34 PM 41.0700 -93.0292 101° East 456 525 35,000  Level Minneapolis Center
Sat 05:19:36 PM 41.0442 -92.8667 102° East 456 525 35,000  Level Minneapolis Center
Sat 05:19:53 PM 41.0331 -92.8006 103° East 454 522 35,000  Level Chicago Center
Sat 05:20:55 PM 41.0078 -92.6381 102° East 454 522 35,000  Level Chicago Center
Sat 05:21:57 PM 40.9819 -92.4742 102° East 455 524 35,000  Level Chicago Center
Sat 05:22:58 PM 40.9558 -92.3114 102° East 455 524 35,000  Level Chicago Center
Sat 05:24:00 PM 40.9292 -92.1472 102° East 458 527 35,000  Level Chicago Center
Sat 05:25:01 PM 40.9008 -91.9831 103° East 459 528 35,000  Level Chicago Center
Sat 05:26:03 PM 40.8742 -91.8194 102° East 458 527 35,000  Level Chicago Center
Sat 05:27:04 PM 40.8403 -91.6219 103° East 461 531 35,000  Level Chicago Center
Sat 05:28:06 PM 40.8131 -91.4581 102° East 461 531 35,000  Level Chicago Center
Sat 05:29:08 PM 40.7847 -91.2922 103° East 464 534 35,000  Level Chicago Center
Sat 05:30:09 PM 40.7539 -91.1153 103° East 465 535 35,000  Level Chicago Center
Sat 05:31:11 PM 40.7244 -90.9517 103° East 462 532 35,000  Level Chicago Center
Sat 05:32:12 PM 40.6956 -90.7839 103° East 467 537 35,000  Level Chicago Center
Sat 05:33:14 PM 40.6650 -90.6200 104° East 464 534 35,000  Level Chicago Center
Sat 05:34:16 PM 40.6350 -90.4544 103° East 468 539 35,000  Level Chicago Center
Sat 05:35:17 PM 40.6058 -90.2903 103° East 464 534 35,000  Level Chicago Center
Sat 05:36:19 PM 40.5706 -90.1025 104° East 463 533 35,000  Level Chicago Center
Sat 05:37:21 PM 40.5406 -89.9389 104° East 463 533 35,000  Level Chicago Center
Sat 05:38:22 PM 40.5097 -89.7764 104° East 462 532 35,000  Level Chicago Center
Sat 05:39:24 PM 40.4794 -89.6136 104° East 460 529 35,000  Level Chicago Center
Sat 05:40:26 PM 40.4489 -89.4500 104° East 459 528 35,000  Level Chicago Center
Sat 05:41:27 PM 40.4181 -89.2883 104° East 458 527 35,000  Level Chicago Center
Sat 05:42:29 PM 40.3803 -89.0944 104° East 459 528 35,000  Level Chicago Center
Sat 05:43:31 PM 40.3489 -88.9331 104° East 457 526 35,000  Level Chicago Center
Sat 05:44:32 PM 40.3181 -88.7711 104° East 460 529 35,000  Level Chicago Center
Sat 05:45:34 PM 40.2850 -88.6097 105° East 460 529 35,000  Level Chicago Center
Sat 05:46:36 PM 40.2542 -88.4550 105° East 464 534 35,000  Level Chicago Center
Sat 05:47:38 PM 40.2158 -88.2625 105° East 461 531 35,000  Level Chicago Center
Sat 05:48:39 PM 40.1878 -88.1219 105° East 464 534 35,000  Level Chicago Center
Sat 05:49:40 PM 40.1544 -87.9600 105° East 464 534 35,000  Level Chicago Center
Sat 05:50:09 PM 40.1333 -87.8525 104° East 461 531 35,000  Level Indianapolis Center
Sat 05:51:10 PM 40.0989 -87.6922 106° East 461 531 35,000  Level Indianapolis Center
Sat 05:52:12 PM 40.0644 -87.5281 105° East 465 535 35,000  Level Indianapolis Center
Sat 05:53:13 PM 40.0292 -87.3658 106° East 463 533 35,000  Level Indianapolis Center
Sat 05:54:15 PM 39.9953 -87.2039 105° East 462 532 35,000  Level Indianapolis Center
Sat 05:55:17 PM 39.9606 -87.0403 105° East 465 535 35,000  Level Indianapolis Center
Sat 05:56:18 PM 39.9247 -86.8789 106° East 463 533 35,000  Level Indianapolis Center
Sat 05:57:20 PM 39.8894 -86.7150 106° East 466 536 35,000  Level Indianapolis Center
Sat 05:58:22 PM 39.8547 -86.5533 106° East 464 534 35,000  Level Indianapolis Center
Sat 05:59:23 PM 39.8206 -86.3922 105° East 460 529 35,000  Level Indianapolis Center
Sat 06:00:25 PM 39.8328 -86.1867 86° East 477 549 35,000  Level Indianapolis Center
Sat 06:01:27 PM 39.8514 -86.0172 82° East 474 545 35,000  Level Indianapolis Center
Sat 06:02:28 PM 39.8686 -85.8464 82° East 476 548 35,000  Level Indianapolis Center
Sat 06:03:30 PM 39.8856 -85.6747 83° East 476 548 35,000  Level Indianapolis Center
Sat 06:04:32 PM 39.9011 -85.5008 83° East 478 550 35,000  Level Indianapolis Center
Sat 06:05:34 PM 39.9050 -85.3253 88° East 482 555 35,000  Level Indianapolis Center
Sat 06:06:35 PM 39.8989 -85.1525 93° East 477 549 35,000  Level Indianapolis Center
Sat 06:07:37 PM 39.8969 -84.9783 91° East 477 549 35,000  Level Indianapolis Center
Sat 06:08:39 PM 39.8978 -84.7769 90° East 474 545 35,000  Level Indianapolis Center
Sat 06:09:40 PM 39.8981 -84.6033 90° East 475 547 35,000  Level Indianapolis Center
Sat 06:10:42 PM 39.8994 -84.4289 89° East 478 550 35,000  Level Indianapolis Center
Sat 06:11:44 PM 39.8997 -84.2561 90° East 473 544 35,000  Level Indianapolis Center
Sat 06:12:45 PM 39.8986 -84.0814 90° East 477 549 35,000  Level Indianapolis Center
Sat 06:13:47 PM 39.8983 -83.9072 90° East 478 550 35,000  Level Indianapolis Center
Sat 06:14:49 PM 39.8969 -83.7325 91° East 478 550 35,000  Level Indianapolis Center
Sat 06:15:50 PM 39.8956 -83.5636 91° East 476 548 35,000  Level Indianapolis Center
Sat 06:16:52 PM 39.8953 -83.3897 90° East 479 551 35,000  Level Indianapolis Center
Sat 06:17:53 PM 39.8925 -83.1983 91° East 477 549 35,000  Level Indianapolis Center
Sat 06:18:55 PM 39.8903 -83.0228 91° East 479 551 35,000  Level Indianapolis Center
Sat 06:19:57 PM 39.8889 -82.8489 91° East 478 550 35,000  Level Indianapolis Center
Sat 06:20:58 PM 39.8861 -82.6725 91° East 481 554 35,000  Level Indianapolis Center
Sat 06:22:00 PM 39.8833 -82.4958 91° East 483 556 35,000  Level Indianapolis Center
Sat 06:23:01 PM 39.8803 -82.3214 91° East 480 552 35,000  Level Indianapolis Center
Sat 06:24:03 PM 39.8764 -82.1183 91° East 478 550 35,000  Level Indianapolis Center
Sat 06:25:04 PM 39.8728 -81.9425 91° East 483 556 35,000  Level Indianapolis Center
Sat 06:26:06 PM 39.8683 -81.7658 92° East 485 558 35,000  Level Indianapolis Center
Sat 06:27:08 PM 39.8517 -81.5933 97° East 481 554 35,000  Level Indianapolis Center
Sat 06:27:23 PM 39.8397 -81.5672 121° Southeast 480 552 35,000  Level Cleveland Center
Sat 06:28:23 PM 39.7972 -81.4289 112° Southeast 460 529 35,000  Level Cleveland Center
Sat 06:29:23 PM 39.7483 -81.2419 109° East 454 522 35,000  Level Cleveland Center
Sat 06:30:23 PM 39.6992 -81.0850 112° Southeast 454 522 35,000  Level Cleveland Center
Sat 06:31:23 PM 39.6539 -80.9336 111° Southeast 454 522 35,000  Level Cleveland Center
Sat 06:32:15 PM 39.6081 -80.8061 115° Southeast 462 532 35,000  Level Indianapolis Center
Sat 06:33:16 PM 39.5597 -80.6525 112° Southeast 460 529 35,000  Level Indianapolis Center
Sat 06:34:18 PM 39.5103 -80.4978 112° Southeast 462 532 35,000  Level Indianapolis Center
Sat 06:34:47 PM 39.4917 -80.4242 108° East 452 520 35,000  Level Washington Center
Sat 06:35:47 PM 39.4436 -80.2731 112° Southeast 452 520 35,000  Level Washington Center
Sat 06:36:47 PM 39.3950 -80.1250 113° Southeast 447 514 35,000 -1,100 Level Washington Center
Sat 06:37:47 PM 39.3464 -79.9744 113° Southeast 447 514 32,800 -2,000 Descending Washington Center
Sat 06:38:47 PM 39.3000 -79.8133 110° East 453 521 31,000 -900 Descending Washington Center
Sat 06:39:47 PM 39.2831 -79.6381 97° East 470 541 31,000  Level Washington Center
Sat 06:40:47 PM 39.2700 -79.4631 95° East 480 552 31,000 -1,050 Level Washington Center
Sat 06:41:47 PM 39.2567 -79.2906 96° East 485 558 28,900 -2,050 Descending Washington Center
Sat 06:42:47 PM 39.2333 -79.0992 99° East 485 558 26,900 -1,650 Descending Washington Center
Sat 06:43:47 PM 39.2175 -78.9244 97° East 490 564 25,600 -2,050 Descending Washington Center
Sat 06:44:47 PM 39.2014 -78.7494 97° East 490 564 22,800 -2,650 Descending Washington Center
Sat 06:45:47 PM 39.1828 -78.5800 98° East 484 557 20,300 -2,550 Descending Washington Center
Sat 06:46:47 PM 39.1681 -78.4161 97° East 479 551 17,700 -2,100 Descending Washington Center
Sat 06:47:47 PM 39.1381 -78.2703 105° East 446 513 16,100 -1,300 Descending Washington Center
Sat 06:48:47 PM 39.1036 -78.1272 107° East 424 488 15,100 -1,150 Descending Washington Center
Sat 06:49:47 PM 39.0686 -77.9925 108° East 406 467 13,800 -1,200 Descending Washington Center
Sat 06:50:47 PM 39.0358 -77.8603 108° East 396 456 12,700 -1,400 Descending Washington Center
Sat 06:51:47 PM 39.0008 -77.7283 109° East 388 447 11,000 -1,253 Descending Washington Center
Sat 06:53:25 PM 38.9500 -77.5500 110° East 333 383 9,400 -1,094 Descending Potomac TRACON
Sat 06:54:26 PM 38.9833 -77.4500 67° East 311 358 8,100 -1,140 Descending Potomac TRACON
Sat 06:55:26 PM 39.0167 -77.3667 63° Northeast 246 283 7,100 -1,350 Descending Potomac TRACON
Sat 06:56:26 PM 39.0333 -77.2833 76° East 245 282 5,400 -1,700 Descending Potomac TRACON
Sat 06:57:26 PM 39.0000 -77.2333 131° Southeast 221 254 3,700 -1,381 Descending Potomac TRACON
Sat 06:58:32 PM 38.9667 -77.1667 123° Southeast 199 229 2,500 -850 Descending Potomac TRACON
Sat 06:59:26 PM 38.9333 -77.1167 131° Southeast 176 203 2,000 -789 Descending Potomac TRACON
Sat 07:00:26 PM 38.9000 -77.0833 142° Southeast 156 180 1,000 -800 Descending Potomac TRACON
Sat 07:01:26 PM 38.8833 -77.0500 123° Southeast 134 154 400 -600 Descending Potomac TRACON
Sat 07:03:00 PM 38.8519 -77.0377 188° South  Level Estimated

Login

Don't have an account? Register now (free) for customized features, flight alerts, and more!